SBCZ/CZS METAR and TAF weather

Enter ICAO airport designator
Station Type Date Time Source
SBCZ METAR 2019/07/18 06:45 UTC NOAA

SBCZ 180645Z 00000KT 5000 BR NSC 21/21 Q1016


Station Type Date Time Source
SBCZ Decoded METAR 2019/07/18 06:45 UTC NOAA

Cruzeiro Do Sul, Brazil (SBCZ) 07-38S 072-40W
Jul 18, 2019 - 02:45 AM EDT / 2019.07.18 0645 UTC
Wind: Calm:0
Visibility: 3 mile(s):0
Weather: mist
Temperature: 69 F (21 C)
Dew Point: 69 F (21 C)
Relative Humidity: 100%
Pressure (altimeter): 30.00 in. Hg (1016 hPa)
ob: SBCZ 180645Z 00000KT 5000 BR NSC 21/21 Q1016
cycle: 7

Station Type Date Time Source
SBCZ TAF 2019/07/18 12:15 UTC NOAA

TAF TAF SBCZ 180900Z 1812/1912 18005KT 4000 BR SCT006 TN23/1813Z TX30/1819Z
BECMG 1813/1815 16005KT 7000 NSW SCT010
BECMG 1815/1817 19005KT 8000 SCT023
BECMG 1817/1819 7000 SHRA BKN030 FEW033TCU
BECMG 1820/1823 33004KT 8000 NSW SCT025
BECMG 1901/1903 00000KT 2000 BR OVC004
BECMG 1911/1912 26002KT 4000 BR SCT008
RMK PFV

Example: see airport list